Aviation Digital Data Service (ADDS)

Output produced by METARs form (2355 UTC 23 October 2019)
found at http://www.aviationweather.gov/metar/data/
 
METAR text: VOMM 232330Z 25003KT 4000 -DZ SCT018 FEW025CB BKN080 25/24 Q1008 NOSIG
Conditions at: VOMM (MADRAS/CHENNAI , IN) observed 2330 UTC 23 October 2019
Temperature: 25.0°C (77°F)
Dewpoint: 24.0°C (75°F) [RH = 94%]
Pressure (altimeter): 29.76 inches Hg (1008.0 mb)
Winds: from the WSW (250 degrees) at 3 MPH (3 knots; 1.5 m/s)
Visibility: 2.49 miles (4.01 km)
Ceiling: 8000 feet AGL
Clouds: scattered clouds at 1800 feet AGL
few clouds at 2500 feet AGL
broken clouds at 8000 feet AGL
Weather: -DZ  (light drizzle)

METAR text: VOMM 232300Z 26004KT 4000 -DZ SCT018 FEW025CB BKN080 25/24 Q1008 NOSIG
Conditions at: VOMM (MADRAS/CHENNAI , IN) observed 2300 UTC 23 October 2019
Temperature: 25.0°C (77°F)
Dewpoint: 24.0°C (75°F) [RH = 94%]
Pressure (altimeter): 29.76 inches Hg (1008.0 mb)
Winds: from the W (260 degrees) at 5 MPH (4 knots; 2.1 m/s)
Visibility: 2.49 miles (4.01 km)
Ceiling: 8000 feet AGL
Clouds: scattered clouds at 1800 feet AGL
few clouds at 2500 feet AGL
broken clouds at 8000 feet AGL
Weather: -DZ  (light drizzle)

METAR text: VOMM 232230Z 24006KT 4000 -DZ SCT018 FEW025CB BKN080 25/24 Q1008 NOSIG
Conditions at: VOMM (MADRAS/CHENNAI , IN) observed 2230 UTC 23 October 2019
Temperature: 25.0°C (77°F)
Dewpoint: 24.0°C (75°F) [RH = 94%]
Pressure (altimeter): 29.76 inches Hg (1008.0 mb)
Winds: from the WSW (240 degrees) at 7 MPH (6 knots; 3.1 m/s)
Visibility: 2.49 miles (4.01 km)
Ceiling: 8000 feet AGL
Clouds: scattered clouds at 1800 feet AGL
few clouds at 2500 feet AGL
broken clouds at 8000 feet AGL
Weather: -DZ  (light drizzle)

METAR text: VOMM 232200Z 24005KT 4000 BR SCT018 FEW025CB BKN080 25/24 Q1008 NOSIG
Conditions at: VOMM (MADRAS/CHENNAI , IN) observed 2200 UTC 23 October 2019
Temperature: 25.0°C (77°F)
Dewpoint: 24.0°C (75°F) [RH = 94%]
Pressure (altimeter): 29.76 inches Hg (1008.0 mb)
Winds: from the WSW (240 degrees) at 6 MPH (5 knots; 2.6 m/s)
Visibility: 2.49 miles (4.01 km)
Ceiling: 8000 feet AGL
Clouds: scattered clouds at 1800 feet AGL
few clouds at 2500 feet AGL
broken clouds at 8000 feet AGL
Weather: BR  (mist)

METAR text: VOMM 232130Z 26005KT 4000 -DZ SCT018 FEW025CB BKN080 25/24 Q1008 TEMPO 3000 -TSRA
Conditions at: VOMM (MADRAS/CHENNAI , IN) observed 2130 UTC 23 October 2019
Temperature: 25.0°C (77°F)
Dewpoint: 24.0°C (75°F) [RH = 94%]
Pressure (altimeter): 29.76 inches Hg (1008.0 mb)
Winds: from the W (260 degrees) at 6 MPH (5 knots; 2.6 m/s)
Visibility: 2.49 miles (4.01 km)
Ceiling: 8000 feet AGL
Clouds: scattered clouds at 1800 feet AGL
few clouds at 2500 feet AGL
broken clouds at 8000 feet AGL
Weather: -DZ  (light drizzle)

METAR text: VOMM 232100Z 24006KT 4000 -DZ SCT018 FEW025CB BKN080 25/24 Q1008 TEMPO 3000 -TSRA
Conditions at: VOMM (MADRAS/CHENNAI , IN) observed 2100 UTC 23 October 2019
Temperature: 25.0°C (77°F)
Dewpoint: 24.0°C (75°F) [RH = 94%]
Pressure (altimeter): 29.76 inches Hg (1008.0 mb)
Winds: from the WSW (240 degrees) at 7 MPH (6 knots; 3.1 m/s)
Visibility: 2.49 miles (4.01 km)
Ceiling: 8000 feet AGL
Clouds: scattered clouds at 1800 feet AGL
few clouds at 2500 feet AGL
broken clouds at 8000 feet AGL
Weather: -DZ  (light drizzle)

METAR text: VOMM 232030Z 26005KT 4000 -DZ SCT018 FEW025CB BKN080 25/24 Q1008 TEMPO 3000 -TSRA
Conditions at: VOMM (MADRAS/CHENNAI , IN) observed 2030 UTC 23 October 2019
Temperature: 25.0°C (77°F)
Dewpoint: 24.0°C (75°F) [RH = 94%]
Pressure (altimeter): 29.76 inches Hg (1008.0 mb)
Winds: from the W (260 degrees) at 6 MPH (5 knots; 2.6 m/s)
Visibility: 2.49 miles (4.01 km)
Ceiling: 8000 feet AGL
Clouds: scattered clouds at 1800 feet AGL
few clouds at 2500 feet AGL
broken clouds at 8000 feet AGL
Weather: -DZ  (light drizzle)

METAR text: VOMM 232000Z 25005KT 4000 -RA SCT018 FEW025CB BKN080 25/24 Q1008 TEMPO 3000 -TSRA
Conditions at: VOMM (MADRAS/CHENNAI , IN) observed 2000 UTC 23 October 2019
Temperature: 25.0°C (77°F)
Dewpoint: 24.0°C (75°F) [RH = 94%]
Pressure (altimeter): 29.76 inches Hg (1008.0 mb)
Winds: from the WSW (250 degrees) at 6 MPH (5 knots; 2.6 m/s)
Visibility: 2.49 miles (4.01 km)
Ceiling: 8000 feet AGL
Clouds: scattered clouds at 1800 feet AGL
few clouds at 2500 feet AGL
broken clouds at 8000 feet AGL
Weather: -RA  (light rain)

METAR text: VOMM 231930Z 25012KT 4000 -DZ SCT018 FEW025CB BKN080 25/24 Q1008 TEMPO 3000 -TSRA
Conditions at: VOMM (MADRAS/CHENNAI , IN) observed 1930 UTC 23 October 2019
Temperature: 25.0°C (77°F)
Dewpoint: 24.0°C (75°F) [RH = 94%]
Pressure (altimeter): 29.76 inches Hg (1008.0 mb)
Winds: from the WSW (250 degrees) at 14 MPH (12 knots; 6.2 m/s)
Visibility: 2.49 miles (4.01 km)
Ceiling: 8000 feet AGL
Clouds: scattered clouds at 1800 feet AGL
few clouds at 2500 feet AGL
broken clouds at 8000 feet AGL
Weather: -DZ  (light drizzle)

METAR text: VOMM 231900Z 24012KT 4000 BR SCT020 FEW025CB BKN100 26/24 Q1008 NOSIG
Conditions at: VOMM (MADRAS/CHENNAI , IN) observed 1900 UTC 23 October 2019
Temperature: 26.0°C (79°F)
Dewpoint: 24.0°C (75°F) [RH = 89%]
Pressure (altimeter): 29.76 inches Hg (1008.0 mb)
Winds: from the WSW (240 degrees) at 14 MPH (12 knots; 6.2 m/s)
Visibility: 2.49 miles (4.01 km)
Ceiling: 10000 feet AGL
Clouds: scattered clouds at 2000 feet AGL
few clouds at 2500 feet AGL
broken clouds at 10000 feet AGL
Weather: BR  (mist)

METAR text: VOMM 231830Z 22012KT 4000 BR SCT020 FEW025CB BKN100 28/26 Q1008 TEMPO 3000 -TSRA
Conditions at: VOMM (MADRAS/CHENNAI , IN) observed 1830 UTC 23 October 2019
Temperature: 28.0°C (82°F)
Dewpoint: 26.0°C (79°F) [RH = 89%]
Pressure (altimeter): 29.76 inches Hg (1008.0 mb)
Winds: from the SW (220 degrees) at 14 MPH (12 knots; 6.2 m/s)
Visibility: 2.49 miles (4.01 km)
Ceiling: 10000 feet AGL
Clouds: scattered clouds at 2000 feet AGL
few clouds at 2500 feet AGL
broken clouds at 10000 feet AGL
Weather: BR  (mist)

METAR text: VOMM 231800Z 18008KT 4000 BR SCT020 FEW025CB SCT100 28/26 Q1008 TEMPO 3000 -TSRA
Conditions at: VOMM (MADRAS/CHENNAI , IN) observed 1800 UTC 23 October 2019
Temperature: 28.0°C (82°F)
Dewpoint: 26.0°C (79°F) [RH = 89%]
Pressure (altimeter): 29.76 inches Hg (1008.0 mb)
Winds: from the S (180 degrees) at 9 MPH (8 knots; 4.1 m/s)
Visibility: 2.49 miles (4.01 km)
Ceiling: at least 12,000 feet AGL
Clouds: scattered clouds at 2000 feet AGL
few clouds at 2500 feet AGL
scattered clouds at 10000 feet AGL
Weather: BR  (mist)

METAR text: VOMM 231730Z 18006KT 5000 BR SCT020 FEW025CB SCT100 28/26 Q1008 TEMPO 4000 -TSRA
Conditions at: VOMM (MADRAS/CHENNAI , IN) observed 1730 UTC 23 October 2019
Temperature: 28.0°C (82°F)
Dewpoint: 26.0°C (79°F) [RH = 89%]
Pressure (altimeter): 29.76 inches Hg (1008.0 mb)
Winds: from the S (180 degrees) at 7 MPH (6 knots; 3.1 m/s)
Visibility: 3 miles ( 5 km)
Ceiling: at least 12,000 feet AGL
Clouds: scattered clouds at 2000 feet AGL
few clouds at 2500 feet AGL
scattered clouds at 10000 feet AGL
Weather: BR  (mist)

METAR text: VOMM 231700Z 19006KT 5000 BR SCT020 FEW025CB SCT100 28/26 Q1008 TEMPO 4000 -TSRA
Conditions at: VOMM (MADRAS/CHENNAI , IN) observed 1700 UTC 23 October 2019
Temperature: 28.0°C (82°F)
Dewpoint: 26.0°C (79°F) [RH = 89%]
Pressure (altimeter): 29.76 inches Hg (1008.0 mb)
Winds: from the S (190 degrees) at 7 MPH (6 knots; 3.1 m/s)
Visibility: 3 miles ( 5 km)
Ceiling: at least 12,000 feet AGL
Clouds: scattered clouds at 2000 feet AGL
few clouds at 2500 feet AGL
scattered clouds at 10000 feet AGL
Weather: BR  (mist)

METAR text: VOMM 231630Z 16005KT 5000 BR SCT020 FEW025CB SCT100 28/26 Q1008 NOSIG
Conditions at: VOMM (MADRAS/CHENNAI , IN) observed 1630 UTC 23 October 2019
Temperature: 28.0°C (82°F)
Dewpoint: 26.0°C (79°F) [RH = 89%]
Pressure (altimeter): 29.76 inches Hg (1008.0 mb)
Winds: from the SSE (160 degrees) at 6 MPH (5 knots; 2.6 m/s)
Visibility: 3 miles ( 5 km)
Ceiling: at least 12,000 feet AGL
Clouds: scattered clouds at 2000 feet AGL
few clouds at 2500 feet AGL
scattered clouds at 10000 feet AGL
Weather: BR  (mist)

METAR text: VOMM 231600Z 18007KT 5000 BR SCT020 FEW025CB SCT100 28/26 Q1009 NOSIG
Conditions at: VOMM (MADRAS/CHENNAI , IN) observed 1600 UTC 23 October 2019
Temperature: 28.0°C (82°F)
Dewpoint: 26.0°C (79°F) [RH = 89%]
Pressure (altimeter): 29.79 inches Hg (1009.0 mb)
Winds: from the S (180 degrees) at 8 MPH (7 knots; 3.6 m/s)
Visibility: 3 miles ( 5 km)
Ceiling: at least 12,000 feet AGL
Clouds: scattered clouds at 2000 feet AGL
few clouds at 2500 feet AGL
scattered clouds at 10000 feet AGL
Weather: BR  (mist)

METAR text: VOMM 231530Z 19005KT 5000 BR SCT020 FEW025CB SCT100 28/26 Q1009 NOSIG
Conditions at: VOMM (MADRAS/CHENNAI , IN) observed 1530 UTC 23 October 2019
Temperature: 28.0°C (82°F)
Dewpoint: 26.0°C (79°F) [RH = 89%]
Pressure (altimeter): 29.79 inches Hg (1009.0 mb)
Winds: from the S (190 degrees) at 6 MPH (5 knots; 2.6 m/s)
Visibility: 3 miles ( 5 km)
Ceiling: at least 12,000 feet AGL
Clouds: scattered clouds at 2000 feet AGL
few clouds at 2500 feet AGL
scattered clouds at 10000 feet AGL
Weather: BR  (mist)

METAR text: VOMM 231500Z 17006KT 5000 BR SCT020 FEW025CB SCT100 28/26 Q1009 NOSIG
Conditions at: VOMM (MADRAS/CHENNAI , IN) observed 1500 UTC 23 October 2019
Temperature: 28.0°C (82°F)
Dewpoint: 26.0°C (79°F) [RH = 89%]
Pressure (altimeter): 29.79 inches Hg (1009.0 mb)
Winds: from the S (170 degrees) at 7 MPH (6 knots; 3.1 m/s)
Visibility: 3 miles ( 5 km)
Ceiling: at least 12,000 feet AGL
Clouds: scattered clouds at 2000 feet AGL
few clouds at 2500 feet AGL
scattered clouds at 10000 feet AGL
Weather: BR  (mist)

METAR text: VOMM 231430Z 19006KT 4500 BR SCT020 FEW025CB SCT100 28/25 Q1008 BECMG 5000 BR
Conditions at: VOMM (MADRAS/CHENNAI , IN) observed 1430 UTC 23 October 2019
Temperature: 28.0°C (82°F)
Dewpoint: 25.0°C (77°F) [RH = 84%]
Pressure (altimeter): 29.76 inches Hg (1008.0 mb)
Winds: from the S (190 degrees) at 7 MPH (6 knots; 3.1 m/s)
Visibility: 2.80 miles (4.51 km)
Ceiling: at least 12,000 feet AGL
Clouds: scattered clouds at 2000 feet AGL
few clouds at 2500 feet AGL
scattered clouds at 10000 feet AGL
Weather: BR  (mist)

METAR text: VOMM 231400Z 19005KT 4000 BR SCT020 FEW025CB BKN090 29/25 Q1008 NOSIG
Conditions at: VOMM (MADRAS/CHENNAI , IN) observed 1400 UTC 23 October 2019
Temperature: 29.0°C (84°F)
Dewpoint: 25.0°C (77°F) [RH = 79%]
Pressure (altimeter): 29.76 inches Hg (1008.0 mb)
Winds: from the S (190 degrees) at 6 MPH (5 knots; 2.6 m/s)
Visibility: 2.49 miles (4.01 km)
Ceiling: 9000 feet AGL
Clouds: scattered clouds at 2000 feet AGL
few clouds at 2500 feet AGL
broken clouds at 9000 feet AGL
Weather: BR  (mist)

METAR text: VOMM 231330Z 13006KT 4000 -DZ SCT020 FEW025CB BKN090 28/25 Q1007 NOSIG
Conditions at: VOMM (MADRAS/CHENNAI , IN) observed 1330 UTC 23 October 2019
Temperature: 28.0°C (82°F)
Dewpoint: 25.0°C (77°F) [RH = 84%]
Pressure (altimeter): 29.73 inches Hg (1007.0 mb)
Winds: from the SE (130 degrees) at 7 MPH (6 knots; 3.1 m/s)
Visibility: 2.49 miles (4.01 km)
Ceiling: 9000 feet AGL
Clouds: scattered clouds at 2000 feet AGL
few clouds at 2500 feet AGL
broken clouds at 9000 feet AGL
Weather: -DZ  (light drizzle)

METAR text: VOMM 231300Z 15006KT 4000 -DZ SCT020 FEW025CB BKN090 28/25 Q1006 NOSIG
Conditions at: VOMM (MADRAS/CHENNAI , IN) observed 1300 UTC 23 October 2019
Temperature: 28.0°C (82°F)
Dewpoint: 25.0°C (77°F) [RH = 84%]
Pressure (altimeter): 29.70 inches Hg (1006.0 mb)
Winds: from the SSE (150 degrees) at 7 MPH (6 knots; 3.1 m/s)
Visibility: 2.49 miles (4.01 km)
Ceiling: 9000 feet AGL
Clouds: scattered clouds at 2000 feet AGL
few clouds at 2500 feet AGL
broken clouds at 9000 feet AGL
Weather: -DZ  (light drizzle)

METAR text: VOMM 231230Z 20006KT 4000 -DZ SCT020 FEW025CB BKN090 29/25 Q1006 NOSIG
Conditions at: VOMM (MADRAS/CHENNAI , IN) observed 1230 UTC 23 October 2019
Temperature: 29.0°C (84°F)
Dewpoint: 25.0°C (77°F) [RH = 79%]
Pressure (altimeter): 29.70 inches Hg (1006.0 mb)
Winds: from the SSW (200 degrees) at 7 MPH (6 knots; 3.1 m/s)
Visibility: 2.49 miles (4.01 km)
Ceiling: 9000 feet AGL
Clouds: scattered clouds at 2000 feet AGL
few clouds at 2500 feet AGL
broken clouds at 9000 feet AGL
Weather: -DZ  (light drizzle)

METAR text: VOMM 231200Z 12008KT 6000 SCT020 FEW025CB BKN090 30/24 Q1005 NOSIG
Conditions at: VOMM (MADRAS/CHENNAI , IN) observed 1200 UTC 23 October 2019
Temperature: 30.0°C (86°F)
Dewpoint: 24.0°C (75°F) [RH = 70%]
Pressure (altimeter): 29.68 inches Hg (1005.0 mb)
Winds: from the ESE (120 degrees) at 9 MPH (8 knots; 4.1 m/s)
Visibility: 4 miles ( 6 km)
Ceiling: 9000 feet AGL
Clouds: scattered clouds at 2000 feet AGL
few clouds at 2500 feet AGL
broken clouds at 9000 feet AGL
Weather: no significant weather observed at this time

METAR text: VOMM 231130Z 12006KT 6000 SCT020 FEW025TCU BKN090 30/24 Q1005 NOSIG
Conditions at: VOMM (MADRAS/CHENNAI , IN) observed 1130 UTC 23 October 2019
Temperature: 30.0°C (86°F)
Dewpoint: 24.0°C (75°F) [RH = 70%]
Pressure (altimeter): 29.68 inches Hg (1005.0 mb)
Winds: from the ESE (120 degrees) at 7 MPH (6 knots; 3.1 m/s)
Visibility: 4 miles ( 6 km)
Ceiling: 9000 feet AGL
Clouds: scattered clouds at 2000 feet AGL
few clouds at 2500 feet AGL
broken clouds at 9000 feet AGL
Weather: no significant weather observed at this time

METAR text: VOMM 231100Z 15007G17KT 6000 SCT020 FEW025TCU BKN090 31/24 Q1005 NOSIG
Conditions at: VOMM (MADRAS/CHENNAI , IN) observed 1100 UTC 23 October 2019
Temperature: 31.0°C (88°F)
Dewpoint: 24.0°C (75°F) [RH = 66%]
Pressure (altimeter): 29.68 inches Hg (1005.0 mb)
Winds: from the SSE (150 degrees) at 8 MPH (7 knots; 3.6 m/s)
gusting to 20 MPH (17 knots; 8.7 m/s)
Visibility: 4 miles ( 6 km)
Ceiling: 9000 feet AGL
Clouds: scattered clouds at 2000 feet AGL
few clouds at 2500 feet AGL
broken clouds at 9000 feet AGL
Weather: no significant weather observed at this time

METAR text: VOMM 231030Z 13007KT 6000 SCT020 BKN090 31/24 Q1005 NOSIG
Conditions at: VOMM (MADRAS/CHENNAI , IN) observed 1030 UTC 23 October 2019
Temperature: 31.0°C (88°F)
Dewpoint: 24.0°C (75°F) [RH = 66%]
Pressure (altimeter): 29.68 inches Hg (1005.0 mb)
Winds: from the SE (130 degrees) at 8 MPH (7 knots; 3.6 m/s)
Visibility: 4 miles ( 6 km)
Ceiling: 9000 feet AGL
Clouds: scattered clouds at 2000 feet AGL
broken clouds at 9000 feet AGL
Weather: no significant weather observed at this time

METAR text: VOMM 231000Z 00000KT 6000 SCT020 BKN090 31/24 Q1005 NOSIG
Conditions at: VOMM (MADRAS/CHENNAI , IN) observed 1000 UTC 23 October 2019
Temperature: 31.0°C (88°F)
Dewpoint: 24.0°C (75°F) [RH = 66%]
Pressure (altimeter): 29.68 inches Hg (1005.0 mb)
Winds: calm
Visibility: 4 miles ( 6 km)
Ceiling: 9000 feet AGL
Clouds: scattered clouds at 2000 feet AGL
broken clouds at 9000 feet AGL
Weather: no significant weather observed at this time

METAR text: VOMM 230930Z 06003KT 6000 SCT020 BKN090 31/24 Q1005 NOSIG
Conditions at: VOMM (MADRAS/CHENNAI , IN) observed 0930 UTC 23 October 2019
Temperature: 31.0°C (88°F)
Dewpoint: 24.0°C (75°F) [RH = 66%]
Pressure (altimeter): 29.68 inches Hg (1005.0 mb)
Winds: from the ENE (60 degrees) at 3 MPH (3 knots; 1.5 m/s)
Visibility: 4 miles ( 6 km)
Ceiling: 9000 feet AGL
Clouds: scattered clouds at 2000 feet AGL
broken clouds at 9000 feet AGL
Weather: no significant weather observed at this time

METAR text: VOMM 230900Z 29005KT 6000 SCT020 BKN090 31/24 Q1005 NOSIG
Conditions at: VOMM (MADRAS/CHENNAI , IN) observed 0900 UTC 23 October 2019
Temperature: 31.0°C (88°F)
Dewpoint: 24.0°C (75°F) [RH = 66%]
Pressure (altimeter): 29.68 inches Hg (1005.0 mb)
Winds: from the WNW (290 degrees) at 6 MPH (5 knots; 2.6 m/s)
Visibility: 4 miles ( 6 km)
Ceiling: 9000 feet AGL
Clouds: scattered clouds at 2000 feet AGL
broken clouds at 9000 feet AGL
Weather: no significant weather observed at this time

METAR text: VOMM 230830Z 28006KT 6000 SCT020 BKN090 32/24 Q1005 NOSIG
Conditions at: VOMM (MADRAS/CHENNAI , IN) observed 0830 UTC 23 October 2019
Temperature: 32.0°C (90°F)
Dewpoint: 24.0°C (75°F) [RH = 63%]
Pressure (altimeter): 29.68 inches Hg (1005.0 mb)
Winds: from the W (280 degrees) at 7 MPH (6 knots; 3.1 m/s)
Visibility: 4 miles ( 6 km)
Ceiling: 9000 feet AGL
Clouds: scattered clouds at 2000 feet AGL
broken clouds at 9000 feet AGL
Weather: no significant weather observed at this time

METAR text: VOMM 230800Z 29006KT 6000 SCT020 BKN090 32/24 Q1006 NOSIG
Conditions at: VOMM (MADRAS/CHENNAI , IN) observed 0800 UTC 23 October 2019
Temperature: 32.0°C (90°F)
Dewpoint: 24.0°C (75°F) [RH = 63%]
Pressure (altimeter): 29.70 inches Hg (1006.0 mb)
Winds: from the WNW (290 degrees) at 7 MPH (6 knots; 3.1 m/s)
Visibility: 4 miles ( 6 km)
Ceiling: 9000 feet AGL
Clouds: scattered clouds at 2000 feet AGL
broken clouds at 9000 feet AGL
Weather: no significant weather observed at this time

METAR text: VOMM 230730Z 31005KT 6000 SCT020 BKN090 32/24 Q1006 NOSIG
Conditions at: VOMM (MADRAS/CHENNAI , IN) observed 0730 UTC 23 October 2019
Temperature: 32.0°C (90°F)
Dewpoint: 24.0°C (75°F) [RH = 63%]
Pressure (altimeter): 29.70 inches Hg (1006.0 mb)
Winds: from the NW (310 degrees) at 6 MPH (5 knots; 2.6 m/s)
Visibility: 4 miles ( 6 km)
Ceiling: 9000 feet AGL
Clouds: scattered clouds at 2000 feet AGL
broken clouds at 9000 feet AGL
Weather: no significant weather observed at this time

METAR text: VOMM 230700Z 31004KT 6000 SCT020 BKN090 32/24 Q1007 NOSIG
Conditions at: VOMM (MADRAS/CHENNAI , IN) observed 0700 UTC 23 October 2019
Temperature: 32.0°C (90°F)
Dewpoint: 24.0°C (75°F) [RH = 63%]
Pressure (altimeter): 29.73 inches Hg (1007.0 mb)
Winds: from the NW (310 degrees) at 5 MPH (4 knots; 2.1 m/s)
Visibility: 4 miles ( 6 km)
Ceiling: 9000 feet AGL
Clouds: scattered clouds at 2000 feet AGL
broken clouds at 9000 feet AGL
Weather: no significant weather observed at this time

METAR text: VOMM 230630Z 33005KT 6000 SCT020 BKN090 32/24 Q1008 NOSIG
Conditions at: VOMM (MADRAS/CHENNAI , IN) observed 0630 UTC 23 October 2019
Temperature: 32.0°C (90°F)
Dewpoint: 24.0°C (75°F) [RH = 63%]
Pressure (altimeter): 29.76 inches Hg (1008.0 mb)
Winds: from the NNW (330 degrees) at 6 MPH (5 knots; 2.6 m/s)
Visibility: 4 miles ( 6 km)
Ceiling: 9000 feet AGL
Clouds: scattered clouds at 2000 feet AGL
broken clouds at 9000 feet AGL
Weather: no significant weather observed at this time

METAR text: VOMM 230600Z 32005KT 6000 FEW020 SCT090 31/24 Q1008 NOSIG
Conditions at: VOMM (MADRAS/CHENNAI , IN) observed 0600 UTC 23 October 2019
Temperature: 31.0°C (88°F)
Dewpoint: 24.0°C (75°F) [RH = 66%]
Pressure (altimeter): 29.76 inches Hg (1008.0 mb)
Winds: from the NW (320 degrees) at 6 MPH (5 knots; 2.6 m/s)
Visibility: 4 miles ( 6 km)
Ceiling: at least 12,000 feet AGL
Clouds: few clouds at 2000 feet AGL
scattered clouds at 9000 feet AGL
Weather: no significant weather observed at this time

METAR text: VOMM 230530Z 30006KT 6000 FEW020 SCT090 31/24 Q1009 NOSIG
Conditions at: VOMM (MADRAS/CHENNAI , IN) observed 0530 UTC 23 October 2019
Temperature: 31.0°C (88°F)
Dewpoint: 24.0°C (75°F) [RH = 66%]
Pressure (altimeter): 29.79 inches Hg (1009.0 mb)
Winds: from the WNW (300 degrees) at 7 MPH (6 knots; 3.1 m/s)
Visibility: 4 miles ( 6 km)
Ceiling: at least 12,000 feet AGL
Clouds: few clouds at 2000 feet AGL
scattered clouds at 9000 feet AGL
Weather: no significant weather observed at this time

METAR text: VOMM 230500Z 29006KT 6000 FEW020 FEW025TCU SCT090 31/24 Q1009 NOSIG
Conditions at: VOMM (MADRAS/CHENNAI , IN) observed 0500 UTC 23 October 2019
Temperature: 31.0°C (88°F)
Dewpoint: 24.0°C (75°F) [RH = 66%]
Pressure (altimeter): 29.79 inches Hg (1009.0 mb)
Winds: from the WNW (290 degrees) at 7 MPH (6 knots; 3.1 m/s)
Visibility: 4 miles ( 6 km)
Ceiling: at least 12,000 feet AGL
Clouds: few clouds at 2000 feet AGL
few clouds at 2500 feet AGL
scattered clouds at 9000 feet AGL
Weather: no significant weather observed at this time

METAR text: VOMM 230430Z 29006KT 6000 FEW020 FEW025TCU SCT090 30/24 Q1009 NOSIG
Conditions at: VOMM (MADRAS/CHENNAI , IN) observed 0430 UTC 23 October 2019
Temperature: 30.0°C (86°F)
Dewpoint: 24.0°C (75°F) [RH = 70%]
Pressure (altimeter): 29.79 inches Hg (1009.0 mb)
Winds: from the WNW (290 degrees) at 7 MPH (6 knots; 3.1 m/s)
Visibility: 4 miles ( 6 km)
Ceiling: at least 12,000 feet AGL
Clouds: few clouds at 2000 feet AGL
few clouds at 2500 feet AGL
scattered clouds at 9000 feet AGL
Weather: no significant weather observed at this time

METAR text: VOMM 230400Z 31005KT 6000 FEW020 FEW025TCU BKN090 30/24 Q1009 NOSIG
Conditions at: VOMM (MADRAS/CHENNAI , IN) observed 0400 UTC 23 October 2019
Temperature: 30.0°C (86°F)
Dewpoint: 24.0°C (75°F) [RH = 70%]
Pressure (altimeter): 29.79 inches Hg (1009.0 mb)
Winds: from the NW (310 degrees) at 6 MPH (5 knots; 2.6 m/s)
Visibility: 4 miles ( 6 km)
Ceiling: 9000 feet AGL
Clouds: few clouds at 2000 feet AGL
few clouds at 2500 feet AGL
broken clouds at 9000 feet AGL
Weather: no significant weather observed at this time

METAR text: VOMM 230330Z 31005KT 6000 FEW020 FEW025TCU BKN090 28/25 Q1009 NOSIG
Conditions at: VOMM (MADRAS/CHENNAI , IN) observed 0330 UTC 23 October 2019
Temperature: 28.0°C (82°F)
Dewpoint: 25.0°C (77°F) [RH = 84%]
Pressure (altimeter): 29.79 inches Hg (1009.0 mb)
Winds: from the NW (310 degrees) at 6 MPH (5 knots; 2.6 m/s)
Visibility: 4 miles ( 6 km)
Ceiling: 9000 feet AGL
Clouds: few clouds at 2000 feet AGL
few clouds at 2500 feet AGL
broken clouds at 9000 feet AGL
Weather: no significant weather observed at this time

METAR text: VOMM 230300Z 28005KT 6000 FEW020 FEW025TCU BKN090 28/25 Q1009 NOSIG
Conditions at: VOMM (MADRAS/CHENNAI , IN) observed 0300 UTC 23 October 2019
Temperature: 28.0°C (82°F)
Dewpoint: 25.0°C (77°F) [RH = 84%]
Pressure (altimeter): 29.79 inches Hg (1009.0 mb)
Winds: from the W (280 degrees) at 6 MPH (5 knots; 2.6 m/s)
Visibility: 4 miles ( 6 km)
Ceiling: 9000 feet AGL
Clouds: few clouds at 2000 feet AGL
few clouds at 2500 feet AGL
broken clouds at 9000 feet AGL
Weather: no significant weather observed at this time

METAR text: VOMM 230230Z 25005KT 6000 FEW020 FEW025TCU BKN090 27/25 Q1009 NOSIG
Conditions at: VOMM (MADRAS/CHENNAI , IN) observed 0230 UTC 23 October 2019
Temperature: 27.0°C (81°F)
Dewpoint: 25.0°C (77°F) [RH = 89%]
Pressure (altimeter): 29.79 inches Hg (1009.0 mb)
Winds: from the WSW (250 degrees) at 6 MPH (5 knots; 2.6 m/s)
Visibility: 4 miles ( 6 km)
Ceiling: 9000 feet AGL
Clouds: few clouds at 2000 feet AGL
few clouds at 2500 feet AGL
broken clouds at 9000 feet AGL
Weather: no significant weather observed at this time

METAR text: VOMM 230200Z 24005KT 5000 BR FEW020 FEW025TCU BKN090 26/25 Q1008 BECMG 6000
Conditions at: VOMM (MADRAS/CHENNAI , IN) observed 0200 UTC 23 October 2019
Temperature: 26.0°C (79°F)
Dewpoint: 25.0°C (77°F) [RH = 94%]
Pressure (altimeter): 29.76 inches Hg (1008.0 mb)
Winds: from the WSW (240 degrees) at 6 MPH (5 knots; 2.6 m/s)
Visibility: 3 miles ( 5 km)
Ceiling: 9000 feet AGL
Clouds: few clouds at 2000 feet AGL
few clouds at 2500 feet AGL
broken clouds at 9000 feet AGL
Weather: BR  (mist)

METAR text: VOMM 230130Z 24004KT 5000 BR FEW020 FEW025TCU SCT100 26/24 Q1008 NOSIG
Conditions at: VOMM (MADRAS/CHENNAI , IN) observed 0130 UTC 23 October 2019
Temperature: 26.0°C (79°F)
Dewpoint: 24.0°C (75°F) [RH = 89%]
Pressure (altimeter): 29.76 inches Hg (1008.0 mb)
Winds: from the WSW (240 degrees) at 5 MPH (4 knots; 2.1 m/s)
Visibility: 3 miles ( 5 km)
Ceiling: at least 12,000 feet AGL
Clouds: few clouds at 2000 feet AGL
few clouds at 2500 feet AGL
scattered clouds at 10000 feet AGL
Weather: BR  (mist)

METAR text: VOMM 230100Z 24004KT 5000 BR FEW020 FEW025TCU SCT100 25/24 Q1007 NOSIG
Conditions at: VOMM (MADRAS/CHENNAI , IN) observed 0100 UTC 23 October 2019
Temperature: 25.0°C (77°F)
Dewpoint: 24.0°C (75°F) [RH = 94%]
Pressure (altimeter): 29.73 inches Hg (1007.0 mb)
Winds: from the WSW (240 degrees) at 5 MPH (4 knots; 2.1 m/s)
Visibility: 3 miles ( 5 km)
Ceiling: at least 12,000 feet AGL
Clouds: few clouds at 2000 feet AGL
few clouds at 2500 feet AGL
scattered clouds at 10000 feet AGL
Weather: BR  (mist)

METAR text: VOMM 230030Z 25004KT 5000 BR FEW020 FEW025TCU SCT100 25/24 Q1007 NOSIG
Conditions at: VOMM (MADRAS/CHENNAI , IN) observed 0030 UTC 23 October 2019
Temperature: 25.0°C (77°F)
Dewpoint: 24.0°C (75°F) [RH = 94%]
Pressure (altimeter): 29.73 inches Hg (1007.0 mb)
Winds: from the WSW (250 degrees) at 5 MPH (4 knots; 2.1 m/s)
Visibility: 3 miles ( 5 km)
Ceiling: at least 12,000 feet AGL
Clouds: few clouds at 2000 feet AGL
few clouds at 2500 feet AGL
scattered clouds at 10000 feet AGL
Weather: BR  (mist)

METAR text: VOMM 230000Z 24004KT 5000 BR FEW020 FEW025TCU SCT100 25/24 Q1006 NOSIG
Conditions at: VOMM (MADRAS/CHENNAI , IN) observed 0000 UTC 23 October 2019
Temperature: 25.0°C (77°F)
Dewpoint: 24.0°C (75°F) [RH = 94%]
Pressure (altimeter): 29.70 inches Hg (1006.0 mb)
Winds: from the WSW (240 degrees) at 5 MPH (4 knots; 2.1 m/s)
Visibility: 3 miles ( 5 km)
Ceiling: at least 12,000 feet AGL
Clouds: few clouds at 2000 feet AGL
few clouds at 2500 feet AGL
scattered clouds at 10000 feet AGL
Weather: BR  (mist)

METAR text: VOMM 222330Z 23004KT 5000 BR FEW020 FEW025TCU SCT100 25/24 Q1006 NOSIG
Conditions at: VOMM (MADRAS/CHENNAI , IN) observed 2330 UTC 22 October 2019
Temperature: 25.0°C (77°F)
Dewpoint: 24.0°C (75°F) [RH = 94%]
Pressure (altimeter): 29.70 inches Hg (1006.0 mb)
Winds: from the SW (230 degrees) at 5 MPH (4 knots; 2.1 m/s)
Visibility: 3 miles ( 5 km)
Ceiling: at least 12,000 feet AGL
Clouds: few clouds at 2000 feet AGL
few clouds at 2500 feet AGL
scattered clouds at 10000 feet AGL
Weather: BR  (mist)

METAR text: VOMM 222300Z 24004KT 5000 BR FEW020 FEW025TCU SCT100 26/25 Q1006 NOSIG
Conditions at: VOMM (MADRAS/CHENNAI , IN) observed 2300 UTC 22 October 2019
Temperature: 26.0°C (79°F)
Dewpoint: 25.0°C (77°F) [RH = 94%]
Pressure (altimeter): 29.70 inches Hg (1006.0 mb)
Winds: from the WSW (240 degrees) at 5 MPH (4 knots; 2.1 m/s)
Visibility: 3 miles ( 5 km)
Ceiling: at least 12,000 feet AGL
Clouds: few clouds at 2000 feet AGL
few clouds at 2500 feet AGL
scattered clouds at 10000 feet AGL
Weather: BR  (mist)

METAR text: VOMM 222230Z 25003KT 5000 BR FEW020 FEW025TCU SCT100 25/24 Q1006 NOSIG
Conditions at: VOMM (MADRAS/CHENNAI , IN) observed 2230 UTC 22 October 2019
Temperature: 25.0°C (77°F)
Dewpoint: 24.0°C (75°F) [RH = 94%]
Pressure (altimeter): 29.70 inches Hg (1006.0 mb)
Winds: from the WSW (250 degrees) at 3 MPH (3 knots; 1.5 m/s)
Visibility: 3 miles ( 5 km)
Ceiling: at least 12,000 feet AGL
Clouds: few clouds at 2000 feet AGL
few clouds at 2500 feet AGL
scattered clouds at 10000 feet AGL
Weather: BR  (mist)

METAR text: VOMM 222200Z 23006KT 5000 BR FEW020 FEW025TCU SCT100 25/25 Q1006 NOSIG
Conditions at: VOMM (MADRAS/CHENNAI , IN) observed 2200 UTC 22 October 2019
Temperature: 25.0°C (77°F)
Dewpoint: 25.0°C (77°F) [RH = 100%]
Pressure (altimeter): 29.70 inches Hg (1006.0 mb)
Winds: from the SW (230 degrees) at 7 MPH (6 knots; 3.1 m/s)
Visibility: 3 miles ( 5 km)
Ceiling: at least 12,000 feet AGL
Clouds: few clouds at 2000 feet AGL
few clouds at 2500 feet AGL
scattered clouds at 10000 feet AGL
Weather: BR  (mist)

METAR text: VOMM 222130Z 23005KT 5000 BR FEW020 FEW025TCU SCT100 25/25 Q1006 NOSIG
Conditions at: VOMM (MADRAS/CHENNAI , IN) observed 2130 UTC 22 October 2019
Temperature: 25.0°C (77°F)
Dewpoint: 25.0°C (77°F) [RH = 100%]
Pressure (altimeter): 29.70 inches Hg (1006.0 mb)
Winds: from the SW (230 degrees) at 6 MPH (5 knots; 2.6 m/s)
Visibility: 3 miles ( 5 km)
Ceiling: at least 12,000 feet AGL
Clouds: few clouds at 2000 feet AGL
few clouds at 2500 feet AGL
scattered clouds at 10000 feet AGL
Weather: BR  (mist)

METAR text: VOMM 222100Z 24005KT 5000 BR FEW020 FEW025TCU SCT100 25/25 Q1006 NOSIG
Conditions at: VOMM (MADRAS/CHENNAI , IN) observed 2100 UTC 22 October 2019
Temperature: 25.0°C (77°F)
Dewpoint: 25.0°C (77°F) [RH = 100%]
Pressure (altimeter): 29.70 inches Hg (1006.0 mb)
Winds: from the WSW (240 degrees) at 6 MPH (5 knots; 2.6 m/s)
Visibility: 3 miles ( 5 km)
Ceiling: at least 12,000 feet AGL
Clouds: few clouds at 2000 feet AGL
few clouds at 2500 feet AGL
scattered clouds at 10000 feet AGL
Weather: BR  (mist)

METAR text: VOMM 222030Z 25003KT 5000 BR FEW020 FEW025TCU SCT100 25/24 Q1007 NOSIG
Conditions at: VOMM (MADRAS/CHENNAI , IN) observed 2030 UTC 22 October 2019
Temperature: 25.0°C (77°F)
Dewpoint: 24.0°C (75°F) [RH = 94%]
Pressure (altimeter): 29.73 inches Hg (1007.0 mb)
Winds: from the WSW (250 degrees) at 3 MPH (3 knots; 1.5 m/s)
Visibility: 3 miles ( 5 km)
Ceiling: at least 12,000 feet AGL
Clouds: few clouds at 2000 feet AGL
few clouds at 2500 feet AGL
scattered clouds at 10000 feet AGL
Weather: BR  (mist)

METAR text: VOMM 222000Z 23003KT 5000 BR FEW020 FEW025TCU SCT100 25/24 Q1007 NOSIG
Conditions at: VOMM (MADRAS/CHENNAI , IN) observed 2000 UTC 22 October 2019
Temperature: 25.0°C (77°F)
Dewpoint: 24.0°C (75°F) [RH = 94%]
Pressure (altimeter): 29.73 inches Hg (1007.0 mb)
Winds: from the SW (230 degrees) at 3 MPH (3 knots; 1.5 m/s)
Visibility: 3 miles ( 5 km)
Ceiling: at least 12,000 feet AGL
Clouds: few clouds at 2000 feet AGL
few clouds at 2500 feet AGL
scattered clouds at 10000 feet AGL
Weather: BR  (mist)

METAR text: VOMM 221930Z 23003KT 5000 BR FEW020 FEW025TCU SCT100 25/24 Q1008 NOSIG
Conditions at: VOMM (MADRAS/CHENNAI , IN) observed 1930 UTC 22 October 2019
Temperature: 25.0°C (77°F)
Dewpoint: 24.0°C (75°F) [RH = 94%]
Pressure (altimeter): 29.76 inches Hg (1008.0 mb)
Winds: from the SW (230 degrees) at 3 MPH (3 knots; 1.5 m/s)
Visibility: 3 miles ( 5 km)
Ceiling: at least 12,000 feet AGL
Clouds: few clouds at 2000 feet AGL
few clouds at 2500 feet AGL
scattered clouds at 10000 feet AGL
Weather: BR  (mist)

METAR text: VOMM 221900Z 23004KT 5000 BR FEW020 FEW025TCU SCT100 25/24 Q1008 NOSIG
Conditions at: VOMM (MADRAS/CHENNAI , IN) observed 1900 UTC 22 October 2019
Temperature: 25.0°C (77°F)
Dewpoint: 24.0°C (75°F) [RH = 94%]
Pressure (altimeter): 29.76 inches Hg (1008.0 mb)
Winds: from the SW (230 degrees) at 5 MPH (4 knots; 2.1 m/s)
Visibility: 3 miles ( 5 km)
Ceiling: at least 12,000 feet AGL
Clouds: few clouds at 2000 feet AGL
few clouds at 2500 feet AGL
scattered clouds at 10000 feet AGL
Weather: BR  (mist)

METAR text: VOMM 221830Z 25004KT 5000 BR FEW020 FEW025TCU SCT100 25/24 Q1008 NOSIG
Conditions at: VOMM (MADRAS/CHENNAI , IN) observed 1830 UTC 22 October 2019
Temperature: 25.0°C (77°F)
Dewpoint: 24.0°C (75°F) [RH = 94%]
Pressure (altimeter): 29.76 inches Hg (1008.0 mb)
Winds: from the WSW (250 degrees) at 5 MPH (4 knots; 2.1 m/s)
Visibility: 3 miles ( 5 km)
Ceiling: at least 12,000 feet AGL
Clouds: few clouds at 2000 feet AGL
few clouds at 2500 feet AGL
scattered clouds at 10000 feet AGL
Weather: BR  (mist)

METAR text: VOMM 221800Z 25004KT 5000 BR FEW020 FEW025CB SCT100 25/24 Q1009 NOSIG
Conditions at: VOMM (MADRAS/CHENNAI , IN) observed 1800 UTC 22 October 2019
Temperature: 25.0°C (77°F)
Dewpoint: 24.0°C (75°F) [RH = 94%]
Pressure (altimeter): 29.79 inches Hg (1009.0 mb)
Winds: from the WSW (250 degrees) at 5 MPH (4 knots; 2.1 m/s)
Visibility: 3 miles ( 5 km)
Ceiling: at least 12,000 feet AGL
Clouds: few clouds at 2000 feet AGL
few clouds at 2500 feet AGL
scattered clouds at 10000 feet AGL
Weather: BR  (mist)

METAR text: VOMM 221730Z 26004KT 5000 BR FEW020 FEW025CB SCT100 25/24 Q1009 NOSIG
Conditions at: VOMM (MADRAS/CHENNAI , IN) observed 1730 UTC 22 October 2019
Temperature: 25.0°C (77°F)
Dewpoint: 24.0°C (75°F) [RH = 94%]
Pressure (altimeter): 29.79 inches Hg (1009.0 mb)
Winds: from the W (260 degrees) at 5 MPH (4 knots; 2.1 m/s)
Visibility: 3 miles ( 5 km)
Ceiling: at least 12,000 feet AGL
Clouds: few clouds at 2000 feet AGL
few clouds at 2500 feet AGL
scattered clouds at 10000 feet AGL
Weather: BR  (mist)

METAR text: VOMM 221700Z 24004KT 5000 BR FEW020 FEW025CB SCT100 25/24 Q1009 NOSIG
Conditions at: VOMM (MADRAS/CHENNAI , IN) observed 1700 UTC 22 October 2019
Temperature: 25.0°C (77°F)
Dewpoint: 24.0°C (75°F) [RH = 94%]
Pressure (altimeter): 29.79 inches Hg (1009.0 mb)
Winds: from the WSW (240 degrees) at 5 MPH (4 knots; 2.1 m/s)
Visibility: 3 miles ( 5 km)
Ceiling: at least 12,000 feet AGL
Clouds: few clouds at 2000 feet AGL
few clouds at 2500 feet AGL
scattered clouds at 10000 feet AGL
Weather: BR  (mist)

METAR text: VOMM 221630Z 25004KT 5000 BR FEW020 FEW025CB SCT100 25/25 Q1009 NOSIG
Conditions at: VOMM (MADRAS/CHENNAI , IN) observed 1630 UTC 22 October 2019
Temperature: 25.0°C (77°F)
Dewpoint: 25.0°C (77°F) [RH = 100%]
Pressure (altimeter): 29.79 inches Hg (1009.0 mb)
Winds: from the WSW (250 degrees) at 5 MPH (4 knots; 2.1 m/s)
Visibility: 3 miles ( 5 km)
Ceiling: at least 12,000 feet AGL
Clouds: few clouds at 2000 feet AGL
few clouds at 2500 feet AGL
scattered clouds at 10000 feet AGL
Weather: BR  (mist)

METAR text: VOMM 221600Z 24004KT 5000 BR FEW020 FEW025CB SCT100 25/25 Q1009 NOSIG
Conditions at: VOMM (MADRAS/CHENNAI , IN) observed 1600 UTC 22 October 2019
Temperature: 25.0°C (77°F)
Dewpoint: 25.0°C (77°F) [RH = 100%]
Pressure (altimeter): 29.79 inches Hg (1009.0 mb)
Winds: from the WSW (240 degrees) at 5 MPH (4 knots; 2.1 m/s)
Visibility: 3 miles ( 5 km)
Ceiling: at least 12,000 feet AGL
Clouds: few clouds at 2000 feet AGL
few clouds at 2500 feet AGL
scattered clouds at 10000 feet AGL
Weather: BR  (mist)

METAR text: VOMM 221530Z 25003KT 5000 BR FEW020 FEW025CB SCT100 25/25 Q1009 NOSIG
Conditions at: VOMM (MADRAS/CHENNAI , IN) observed 1530 UTC 22 October 2019
Temperature: 25.0°C (77°F)
Dewpoint: 25.0°C (77°F) [RH = 100%]
Pressure (altimeter): 29.79 inches Hg (1009.0 mb)
Winds: from the WSW (250 degrees) at 3 MPH (3 knots; 1.5 m/s)
Visibility: 3 miles ( 5 km)
Ceiling: at least 12,000 feet AGL
Clouds: few clouds at 2000 feet AGL
few clouds at 2500 feet AGL
scattered clouds at 10000 feet AGL
Weather: BR  (mist)

METAR text: VOMM 221500Z 23003KT 5000 BR FEW020 FEW025CB SCT100 26/25 Q1009 NOSIG
Conditions at: VOMM (MADRAS/CHENNAI , IN) observed 1500 UTC 22 October 2019
Temperature: 26.0°C (79°F)
Dewpoint: 25.0°C (77°F) [RH = 94%]
Pressure (altimeter): 29.79 inches Hg (1009.0 mb)
Winds: from the SW (230 degrees) at 3 MPH (3 knots; 1.5 m/s)
Visibility: 3 miles ( 5 km)
Ceiling: at least 12,000 feet AGL
Clouds: few clouds at 2000 feet AGL
few clouds at 2500 feet AGL
scattered clouds at 10000 feet AGL
Weather: BR  (mist)

METAR text: VOMM 221430Z 23003KT 5000 BR FEW020 FEW025CB SCT100 26/24 Q1009 NOSIG
Conditions at: VOMM (MADRAS/CHENNAI , IN) observed 1430 UTC 22 October 2019
Temperature: 26.0°C (79°F)
Dewpoint: 24.0°C (75°F) [RH = 89%]
Pressure (altimeter): 29.79 inches Hg (1009.0 mb)
Winds: from the SW (230 degrees) at 3 MPH (3 knots; 1.5 m/s)
Visibility: 3 miles ( 5 km)
Ceiling: at least 12,000 feet AGL
Clouds: few clouds at 2000 feet AGL
few clouds at 2500 feet AGL
scattered clouds at 10000 feet AGL
Weather: BR  (mist)

METAR text: VOMM 221400Z 21003KT 5000 BR FEW020 FEW025TCU SCT100 26/25 Q1008 NOSIG
Conditions at: VOMM (MADRAS/CHENNAI , IN) observed 1400 UTC 22 October 2019
Temperature: 26.0°C (79°F)
Dewpoint: 25.0°C (77°F) [RH = 94%]
Pressure (altimeter): 29.76 inches Hg (1008.0 mb)
Winds: from the SSW (210 degrees) at 3 MPH (3 knots; 1.5 m/s)
Visibility: 3 miles ( 5 km)
Ceiling: at least 12,000 feet AGL
Clouds: few clouds at 2000 feet AGL
few clouds at 2500 feet AGL
scattered clouds at 10000 feet AGL
Weather: BR  (mist)

METAR text: VOMM 221330Z 00000KT 5000 BR FEW018 FEW025TCU SCT080 26/25 Q1008 NOSIG
Conditions at: VOMM (MADRAS/CHENNAI , IN) observed 1330 UTC 22 October 2019
Temperature: 26.0°C (79°F)
Dewpoint: 25.0°C (77°F) [RH = 94%]
Pressure (altimeter): 29.76 inches Hg (1008.0 mb)
Winds: calm
Visibility: 3 miles ( 5 km)
Ceiling: at least 12,000 feet AGL
Clouds: few clouds at 1800 feet AGL
few clouds at 2500 feet AGL
scattered clouds at 8000 feet AGL
Weather: BR  (mist)

METAR text: VOMM 221300Z 00000KT 5000 BR SCT018 FEW025TCU BKN080 26/25 Q1007 NOSIG
Conditions at: VOMM (MADRAS/CHENNAI , IN) observed 1300 UTC 22 October 2019
Temperature: 26.0°C (79°F)
Dewpoint: 25.0°C (77°F) [RH = 94%]
Pressure (altimeter): 29.73 inches Hg (1007.0 mb)
Winds: calm
Visibility: 3 miles ( 5 km)
Ceiling: 8000 feet AGL
Clouds: scattered clouds at 1800 feet AGL
few clouds at 2500 feet AGL
broken clouds at 8000 feet AGL
Weather: BR  (mist)

METAR text: VOMM 221230Z VRB02KT 5000 BR SCT018 FEW025TCU BKN080 26/24 Q1007 NOSIG
Conditions at: VOMM (MADRAS/CHENNAI , IN) observed 1230 UTC 22 October 2019
Temperature: 26.0°C (79°F)
Dewpoint: 24.0°C (75°F) [RH = 89%]
Pressure (altimeter): 29.73 inches Hg (1007.0 mb)
Winds: variable direction winds at 2 MPH (2 knots; 1.0 m/s)
Visibility: 3 miles ( 5 km)
Ceiling: 8000 feet AGL
Clouds: scattered clouds at 1800 feet AGL
few clouds at 2500 feet AGL
broken clouds at 8000 feet AGL
Weather: BR  (mist)

METAR text: VOMM 221200Z 00000KT 5000 BR SCT018 FEW025TCU BKN080 27/24 Q1007 NOSIG
Conditions at: VOMM (MADRAS/CHENNAI , IN) observed 1200 UTC 22 October 2019
Temperature: 27.0°C (81°F)
Dewpoint: 24.0°C (75°F) [RH = 84%]
Pressure (altimeter): 29.73 inches Hg (1007.0 mb)
Winds: calm
Visibility: 3 miles ( 5 km)
Ceiling: 8000 feet AGL
Clouds: scattered clouds at 1800 feet AGL
few clouds at 2500 feet AGL
broken clouds at 8000 feet AGL
Weather: BR  (mist)

Forecast for: VOMM (MADRAS/CHENNAI , IN)
Text: TAF VOMM 232300Z 2400/2506 25005KT 5000 BR SCT020 BKN100
Forecast period: 0000 to 0600 UTC 24 October 2019
Forecast type: FROM: standard forecast or significant change
Winds: from the WSW (250 degrees) at 6 MPH (5 knots; 2.6 m/s)
Visibility: 3 miles (5 km)
Ceiling: 10000 feet AGL
Clouds: scattered clouds at 2000 feet AGL
broken clouds at 10000 feet AGL
Weather: BR  (mist)
Text: PROB40
Forecast period: 0000 to 0600 UTC 24 October 2019
Forecast type: TEMPORARY: The following changes expected for less than half the time period
Visibility: 1.86 miles (2.99 km)
Ceiling: 8000 feet AGL
Clouds: scattered clouds at 1600 feet AGL
few clouds at 2500 feet AGL
broken clouds at 8000 feet AGL
Weather: TSRA RA  (rain associated with thunderstorm(s), moderate rain)
Text: TEMPO 2400/2406 3000 TSRA/RA SCT016 FEW025CB BKN080
Forecast period: 0600 to 1200 UTC 24 October 2019
Forecast type: BECOMING: Conditions expected to become as follows by 0700 UTC 24 October 2019
Winds: from the WSW (250 degrees) at 6 MPH (5 knots; 2.6 m/s)
Visibility: 4 miles (6 km)
Ceiling: 10000 feet AGL
Clouds: scattered clouds at 2000 feet AGL
broken clouds at 10000 feet AGL
Weather: BR  (mist)
Text: BECMG 2406/2407 6000
Forecast period: 1200 UTC 24 October 2019 to 0500 UTC 25 October 2019
Forecast type: BECOMING: Conditions expected to become as follows by 1300 UTC 24 October 2019
Winds: from the WSW (250 degrees) at 6 MPH (5 knots; 2.6 m/s)
Visibility: 3 miles (5 km)
Ceiling: 10000 feet AGL
Clouds: scattered clouds at 2000 feet AGL
broken clouds at 10000 feet AGL
Weather: BR  (mist)
Text: BECMG 2412/2413 5000 BR
Forecast period: 0500 to 0600 UTC 25 October 2019
Forecast type: BECOMING: Conditions expected to become as follows by 0600 UTC 25 October 2019
Winds: from the WSW (250 degrees) at 6 MPH (5 knots; 2.6 m/s)
Visibility: 4 miles (6 km)
Ceiling: 10000 feet AGL
Clouds: scattered clouds at 2000 feet AGL
broken clouds at 10000 feet AGL
Weather: BR  (mist)